sensor_id;sensor_type;location;lat;lon;timestamp;P1;durP1;ratioP1;P2;durP2;ratioP2
5682;SDS011;2864;49.220;8.654;2022-07-03T00:01:03;1.90;;;1.60;;
5682;SDS011;2864;49.220;8.654;2022-07-03T00:03:28;1.80;;;1.70;;
5682;SDS011;2864;49.220;8.654;2022-07-03T00:05:54;1.97;;;1.50;;
5682;SDS011;2864;49.220;8.654;2022-07-03T00:08:20;3.13;;;1.70;;
5682;SDS011;2864;49.220;8.654;2022-07-03T00:10:45;2.07;;;1.83;;
5682;SDS011;2864;49.220;8.654;2022-07-03T00:13:11;2.93;;;1.80;;
5682;SDS011;2864;49.220;8.654;2022-07-03T00:15:37;3.03;;;1.70;;
5682;SDS011;2864;49.220;8.654;2022-07-03T00:18:03;2.00;;;1.70;;
5682;SDS011;2864;49.220;8.654;2022-07-03T00:20:30;2.40;;;2.10;;
5682;SDS011;2864;49.220;8.654;2022-07-03T00:23:00;1.73;;;1.60;;
5682;SDS011;2864;49.220;8.654;2022-07-03T00:25:29;4.60;;;1.90;;
5682;SDS011;2864;49.220;8.654;2022-07-03T00:27:58;3.17;;;2.10;;
5682;SDS011;2864;49.220;8.654;2022-07-03T00:30:24;2.07;;;1.93;;
5682;SDS011;2864;49.220;8.654;2022-07-03T00:32:50;4.47;;;1.90;;
5682;SDS011;2864;49.220;8.654;2022-07-03T00:35:17;2.40;;;1.87;;
5682;SDS011;2864;49.220;8.654;2022-07-03T00:37:43;2.17;;;1.87;;
5682;SDS011;2864;49.220;8.654;2022-07-03T00:40:09;3.87;;;2.00;;
5682;SDS011;2864;49.220;8.654;2022-07-03T00:42:38;3.80;;;1.90;;
5682;SDS011;2864;49.220;8.654;2022-07-03T00:45:06;2.10;;;1.90;;
5682;SDS011;2864;49.220;8.654;2022-07-03T00:47:34;3.17;;;2.00;;
5682;SDS011;2864;49.220;8.654;2022-07-03T00:50:04;2.40;;;1.90;;
5682;SDS011;2864;49.220;8.654;2022-07-03T00:52:32;3.17;;;2.00;;
5682;SDS011;2864;49.220;8.654;2022-07-03T00:54:59;2.33;;;1.83;;
5682;SDS011;2864;49.220;8.654;2022-07-03T00:57:27;2.70;;;2.00;;
5682;SDS011;2864;49.220;8.654;2022-07-03T00:59:54;6.47;;;2.20;;
5682;SDS011;2864;49.220;8.654;2022-07-03T01:02:34;4.23;;;2.10;;
5682;SDS011;2864;49.220;8.654;2022-07-03T01:11:00;4.90;;;2.20;;
5682;SDS011;2864;49.220;8.654;2022-07-03T01:16:40;2.67;;;2.07;;
5682;SDS011;2864;49.220;8.654;2022-07-03T01:33:50;5.30;;;2.10;;
5682;SDS011;2864;49.220;8.654;2022-07-03T01:36:16;3.00;;;2.10;;
5682;SDS011;2864;49.220;8.654;2022-07-03T01:38:45;2.67;;;2.10;;
5682;SDS011;2864;49.220;8.654;2022-07-03T01:41:14;2.63;;;2.37;;
5682;SDS011;2864;49.220;8.654;2022-07-03T01:43:48;2.80;;;2.20;;
5682;SDS011;2864;49.220;8.654;2022-07-03T01:46:17;2.40;;;2.20;;
5682;SDS011;2864;49.220;8.654;2022-07-03T01:48:45;4.07;;;2.60;;
5682;SDS011;2864;49.220;8.654;2022-07-03T01:51:15;2.87;;;2.37;;
5682;SDS011;2864;49.220;8.654;2022-07-03T01:53:46;4.37;;;2.60;;
5682;SDS011;2864;49.220;8.654;2022-07-03T01:56:13;3.80;;;2.50;;
5682;SDS011;2864;49.220;8.654;2022-07-03T01:58:42;3.03;;;2.70;;
5682;SDS011;2864;49.220;8.654;2022-07-03T02:01:09;5.80;;;2.30;;
5682;SDS011;2864;49.220;8.654;2022-07-03T02:04:09;3.60;;;2.67;;
5682;SDS011;2864;49.220;8.654;2022-07-03T02:06:51;2.70;;;2.50;;
5682;SDS011;2864;49.220;8.654;2022-07-03T02:09:46;6.63;;;2.60;;
5682;SDS011;2864;49.220;8.654;2022-07-03T02:12:18;3.53;;;2.50;;
5682;SDS011;2864;49.220;8.654;2022-07-03T02:14:53;5.33;;;2.40;;
5682;SDS011;2864;49.220;8.654;2022-07-03T02:17:27;5.23;;;2.90;;
5682;SDS011;2864;49.220;8.654;2022-07-03T02:22:31;3.80;;;2.70;;
5682;SDS011;2864;49.220;8.654;2022-07-03T02:25:06;4.53;;;2.53;;
5682;SDS011;2864;49.220;8.654;2022-07-03T02:27:44;3.17;;;2.43;;
5682;SDS011;2864;49.220;8.654;2022-07-03T02:30:15;3.30;;;2.83;;
5682;SDS011;2864;49.220;8.654;2022-07-03T02:32:48;3.10;;;2.60;;
5682;SDS011;2864;49.220;8.654;2022-07-03T02:35:18;2.80;;;2.40;;
5682;SDS011;2864;49.220;8.654;2022-07-03T02:40:28;3.97;;;2.60;;
5682;SDS011;2864;49.220;8.654;2022-07-03T02:43:08;6.87;;;2.80;;
5682;SDS011;2864;49.220;8.654;2022-07-03T02:45:50;4.23;;;2.73;;
5682;SDS011;2864;49.220;8.654;2022-07-03T02:48:24;3.93;;;2.40;;
5682;SDS011;2864;49.220;8.654;2022-07-03T02:50:57;7.00;;;3.37;;
5682;SDS011;2864;49.220;8.654;2022-07-03T02:53:44;4.67;;;2.77;;
5682;SDS011;2864;49.220;8.654;2022-07-03T03:07:59;3.27;;;2.93;;
5682;SDS011;2864;49.220;8.654;2022-07-03T03:10:38;3.30;;;3.00;;
5682;SDS011;2864;49.220;8.654;2022-07-03T03:13:05;3.47;;;2.93;;
5682;SDS011;2864;49.220;8.654;2022-07-03T03:15:43;4.13;;;2.77;;
5682;SDS011;2864;49.220;8.654;2022-07-03T03:18:22;5.37;;;2.90;;
5682;SDS011;2864;49.220;8.654;2022-07-03T03:20:53;3.70;;;2.57;;
5682;SDS011;2864;49.220;8.654;2022-07-03T03:26:24;3.00;;;2.70;;
5682;SDS011;2864;49.220;8.654;2022-07-03T03:28:51;3.07;;;2.80;;
5682;SDS011;2864;49.220;8.654;2022-07-03T03:31:17;3.20;;;2.67;;
5682;SDS011;2864;49.220;8.654;2022-07-03T03:33:44;3.40;;;2.83;;
5682;SDS011;2864;49.220;8.654;2022-07-03T03:36:12;3.87;;;3.10;;
5682;SDS011;2864;49.220;8.654;2022-07-03T03:38:41;3.63;;;2.83;;
5682;SDS011;2864;49.220;8.654;2022-07-03T03:41:07;3.63;;;2.70;;
5682;SDS011;2864;49.220;8.654;2022-07-03T03:43:33;3.07;;;2.70;;
5682;SDS011;2864;49.220;8.654;2022-07-03T03:46:00;4.37;;;3.07;;
5682;SDS011;2864;49.220;8.654;2022-07-03T03:48:26;5.97;;;3.00;;
5682;SDS011;2864;49.220;8.654;2022-07-03T03:50:53;6.47;;;2.80;;
5682;SDS011;2864;49.220;8.654;2022-07-03T03:53:23;3.40;;;2.97;;
5682;SDS011;2864;49.220;8.654;2022-07-03T03:56:06;3.00;;;2.70;;
5682;SDS011;2864;49.220;8.654;2022-07-03T03:58:35;4.07;;;2.97;;
5682;SDS011;2864;49.220;8.654;2022-07-03T04:01:02;5.43;;;2.70;;
5682;SDS011;2864;49.220;8.654;2022-07-03T04:03:29;3.73;;;2.63;;
5682;SDS011;2864;49.220;8.654;2022-07-03T04:05:56;4.67;;;2.90;;
5682;SDS011;2864;49.220;8.654;2022-07-03T04:08:22;5.57;;;2.97;;
5682;SDS011;2864;49.220;8.654;2022-07-03T04:10:49;3.97;;;2.67;;
5682;SDS011;2864;49.220;8.654;2022-07-03T04:13:15;5.43;;;3.00;;
5682;SDS011;2864;49.220;8.654;2022-07-03T04:15:42;2.87;;;2.63;;
5682;SDS011;2864;49.220;8.654;2022-07-03T04:18:08;5.27;;;2.67;;
5682;SDS011;2864;49.220;8.654;2022-07-03T04:20:34;3.93;;;2.70;;
5682;SDS011;2864;49.220;8.654;2022-07-03T04:23:00;3.23;;;2.70;;
5682;SDS011;2864;49.220;8.654;2022-07-03T04:25:26;4.80;;;2.87;;
5682;SDS011;2864;49.220;8.654;2022-07-03T04:27:52;3.80;;;2.83;;
5682;SDS011;2864;49.220;8.654;2022-07-03T04:30:18;4.33;;;2.70;;
5682;SDS011;2864;49.220;8.654;2022-07-03T04:32:43;4.40;;;2.67;;
5682;SDS011;2864;49.220;8.654;2022-07-03T04:35:10;2.53;;;2.33;;
5682;SDS011;2864;49.220;8.654;2022-07-03T04:37:35;4.33;;;2.70;;
5682;SDS011;2864;49.220;8.654;2022-07-03T04:40:01;4.13;;;2.53;;
5682;SDS011;2864;49.220;8.654;2022-07-03T04:42:27;4.80;;;2.73;;
5682;SDS011;2864;49.220;8.654;2022-07-03T04:44:52;3.57;;;2.57;;
5682;SDS011;2864;49.220;8.654;2022-07-03T04:47:18;2.70;;;2.50;;
5682;SDS011;2864;49.220;8.654;2022-07-03T04:49:43;3.67;;;2.53;;
5682;SDS011;2864;49.220;8.654;2022-07-03T04:52:09;2.87;;;2.20;;
5682;SDS011;2864;49.220;8.654;2022-07-03T04:54:35;4.00;;;2.40;;
5682;SDS011;2864;49.220;8.654;2022-07-03T04:57:01;4.37;;;2.43;;
5682;SDS011;2864;49.220;8.654;2022-07-03T04:59:28;2.47;;;2.27;;
5682;SDS011;2864;49.220;8.654;2022-07-03T05:01:54;2.73;;;2.20;;
5682;SDS011;2864;49.220;8.654;2022-07-03T05:04:19;2.30;;;2.10;;
5682;SDS011;2864;49.220;8.654;2022-07-03T05:06:45;3.03;;;2.17;;
5682;SDS011;2864;49.220;8.654;2022-07-03T05:09:10;3.83;;;2.17;;
5682;SDS011;2864;49.220;8.654;2022-07-03T05:11:36;5.10;;;2.10;;
5682;SDS011;2864;49.220;8.654;2022-07-03T05:14:02;2.67;;;2.13;;
5682;SDS011;2864;49.220;8.654;2022-07-03T05:16:29;3.43;;;2.20;;
5682;SDS011;2864;49.220;8.654;2022-07-03T05:18:54;4.47;;;2.20;;
5682;SDS011;2864;49.220;8.654;2022-07-03T05:21:20;3.43;;;2.07;;
5682;SDS011;2864;49.220;8.654;2022-07-03T05:28:56;2.20;;;2.00;;
5682;SDS011;2864;49.220;8.654;2022-07-03T05:31:22;3.20;;;2.10;;
5682;SDS011;2864;49.220;8.654;2022-07-03T05:33:48;2.20;;;2.00;;
5682;SDS011;2864;49.220;8.654;2022-07-03T05:36:13;3.63;;;1.97;;
5682;SDS011;2864;49.220;8.654;2022-07-03T05:38:39;2.80;;;2.00;;
5682;SDS011;2864;49.220;8.654;2022-07-03T05:41:23;3.20;;;1.90;;
5682;SDS011;2864;49.220;8.654;2022-07-03T05:43:48;1.90;;;1.80;;
5682;SDS011;2864;49.220;8.654;2022-07-03T05:46:14;4.27;;;2.10;;
5682;SDS011;2864;49.220;8.654;2022-07-03T05:48:40;2.23;;;1.90;;
5682;SDS011;2864;49.220;8.654;2022-07-03T05:51:05;2.27;;;2.07;;
5682;SDS011;2864;49.220;8.654;2022-07-03T05:53:31;3.60;;;2.10;;
5682;SDS011;2864;49.220;8.654;2022-07-03T05:55:57;3.03;;;2.07;;
5682;SDS011;2864;49.220;8.654;2022-07-03T05:58:23;2.87;;;2.00;;
5682;SDS011;2864;49.220;8.654;2022-07-03T06:00:49;4.43;;;2.37;;
5682;SDS011;2864;49.220;8.654;2022-07-03T06:03:14;2.30;;;2.10;;
5682;SDS011;2864;49.220;8.654;2022-07-03T06:05:40;4.90;;;2.20;;
5682;SDS011;2864;49.220;8.654;2022-07-03T06:08:06;2.10;;;1.90;;
5682;SDS011;2864;49.220;8.654;2022-07-03T06:10:32;3.40;;;2.33;;
5682;SDS011;2864;49.220;8.654;2022-07-03T06:12:57;2.97;;;2.10;;
5682;SDS011;2864;49.220;8.654;2022-07-03T06:15:23;3.63;;;1.90;;
5682;SDS011;2864;49.220;8.654;2022-07-03T06:17:49;2.60;;;1.90;;
5682;SDS011;2864;49.220;8.654;2022-07-03T06:20:15;5.13;;;2.13;;
5682;SDS011;2864;49.220;8.654;2022-07-03T06:22:40;3.87;;;1.80;;
5682;SDS011;2864;49.220;8.654;2022-07-03T06:25:07;2.37;;;1.90;;
5682;SDS011;2864;49.220;8.654;2022-07-03T06:27:32;2.00;;;1.90;;
5682;SDS011;2864;49.220;8.654;2022-07-03T06:29:58;2.10;;;1.80;;
5682;SDS011;2864;49.220;8.654;2022-07-03T06:32:24;2.40;;;2.13;;
5682;SDS011;2864;49.220;8.654;2022-07-03T06:34:50;3.00;;;1.60;;
5682;SDS011;2864;49.220;8.654;2022-07-03T06:37:16;2.97;;;1.90;;
5682;SDS011;2864;49.220;8.654;2022-07-03T06:39:41;5.53;;;1.80;;
5682;SDS011;2864;49.220;8.654;2022-07-03T06:42:07;3.50;;;2.07;;
5682;SDS011;2864;49.220;8.654;2022-07-03T06:44:33;3.87;;;1.93;;
5682;SDS011;2864;49.220;8.654;2022-07-03T06:46:58;2.20;;;2.00;;
5682;SDS011;2864;49.220;8.654;2022-07-03T06:49:28;2.33;;;1.87;;
5682;SDS011;2864;49.220;8.654;2022-07-03T06:51:57;3.17;;;2.00;;
5682;SDS011;2864;49.220;8.654;2022-07-03T06:54:23;2.03;;;1.73;;
5682;SDS011;2864;49.220;8.654;2022-07-03T06:56:48;3.47;;;1.63;;
5682;SDS011;2864;49.220;8.654;2022-07-03T06:59:14;3.50;;;1.70;;
5682;SDS011;2864;49.220;8.654;2022-07-03T07:01:40;5.23;;;1.80;;
5682;SDS011;2864;49.220;8.654;2022-07-03T07:04:05;1.87;;;1.70;;
5682;SDS011;2864;49.220;8.654;2022-07-03T07:06:32;3.10;;;1.50;;
5682;SDS011;2864;49.220;8.654;2022-07-03T07:08:58;1.60;;;1.50;;
5682;SDS011;2864;49.220;8.654;2022-07-03T07:11:23;1.67;;;1.50;;
5682;SDS011;2864;49.220;8.654;2022-07-03T07:13:49;5.00;;;1.50;;
5682;SDS011;2864;49.220;8.654;2022-07-03T07:16:14;3.57;;;1.63;;
5682;SDS011;2864;49.220;8.654;2022-07-03T07:18:40;5.70;;;1.40;;
5682;SDS011;2864;49.220;8.654;2022-07-03T07:21:07;3.33;;;1.57;;
5682;SDS011;2864;49.220;8.654;2022-07-03T07:23:33;1.80;;;1.60;;
5682;SDS011;2864;49.220;8.654;2022-07-03T07:25:59;3.83;;;1.60;;
5682;SDS011;2864;49.220;8.654;2022-07-03T07:28:25;3.07;;;1.50;;
5682;SDS011;2864;49.220;8.654;2022-07-03T07:30:50;1.73;;;1.60;;
5682;SDS011;2864;49.220;8.654;2022-07-03T07:33:20;2.30;;;1.77;;
5682;SDS011;2864;49.220;8.654;2022-07-03T07:35:47;4.13;;;1.70;;
5682;SDS011;2864;49.220;8.654;2022-07-03T07:38:12;1.83;;;1.50;;
5682;SDS011;2864;49.220;8.654;2022-07-03T07:40:38;1.60;;;1.50;;
5682;SDS011;2864;49.220;8.654;2022-07-03T07:43:04;1.83;;;1.57;;
5682;SDS011;2864;49.220;8.654;2022-07-03T07:45:29;4.00;;;1.70;;
5682;SDS011;2864;49.220;8.654;2022-07-03T07:47:55;3.40;;;1.30;;
5682;SDS011;2864;49.220;8.654;2022-07-03T07:50:20;1.60;;;1.40;;
5682;SDS011;2864;49.220;8.654;2022-07-03T07:52:46;2.27;;;1.57;;
5682;SDS011;2864;49.220;8.654;2022-07-03T07:55:11;1.30;;;1.20;;
5682;SDS011;2864;49.220;8.654;2022-07-03T07:57:38;1.60;;;1.50;;
5682;SDS011;2864;49.220;8.654;2022-07-03T08:00:08;2.53;;;1.40;;
5682;SDS011;2864;49.220;8.654;2022-07-03T08:02:40;2.13;;;1.47;;
5682;SDS011;2864;49.220;8.654;2022-07-03T08:05:24;2.43;;;1.60;;
5682;SDS011;2864;49.220;8.654;2022-07-03T08:08:04;3.90;;;1.30;;
5682;SDS011;2864;49.220;8.654;2022-07-03T08:10:38;2.47;;;1.17;;
5682;SDS011;2864;49.220;8.654;2022-07-03T08:13:06;2.63;;;1.30;;
5682;SDS011;2864;49.220;8.654;2022-07-03T08:15:33;4.63;;;1.67;;
5682;SDS011;2864;49.220;8.654;2022-07-03T08:17:59;1.90;;;1.40;;
5682;SDS011;2864;49.220;8.654;2022-07-03T08:20:25;2.77;;;1.30;;
5682;SDS011;2864;49.220;8.654;2022-07-03T08:22:50;2.57;;;1.30;;
5682;SDS011;2864;49.220;8.654;2022-07-03T08:25:16;1.43;;;1.27;;
5682;SDS011;2864;49.220;8.654;2022-07-03T08:27:42;2.47;;;1.30;;
5682;SDS011;2864;49.220;8.654;2022-07-03T08:30:08;1.70;;;1.30;;
5682;SDS011;2864;49.220;8.654;2022-07-03T08:32:33;3.83;;;1.43;;
5682;SDS011;2864;49.220;8.654;2022-07-03T08:34:59;1.47;;;1.27;;
5682;SDS011;2864;49.220;8.654;2022-07-03T08:37:28;4.10;;;1.40;;
5682;SDS011;2864;49.220;8.654;2022-07-03T08:39:53;1.53;;;1.30;;
5682;SDS011;2864;49.220;8.654;2022-07-03T08:42:19;3.13;;;1.33;;
5682;SDS011;2864;49.220;8.654;2022-07-03T08:44:46;1.50;;;1.40;;
5682;SDS011;2864;49.220;8.654;2022-07-03T08:47:13;4.30;;;1.50;;
5682;SDS011;2864;49.220;8.654;2022-07-03T08:49:42;2.60;;;1.40;;
5682;SDS011;2864;49.220;8.654;2022-07-03T08:52:08;3.03;;;1.43;;
5682;SDS011;2864;49.220;8.654;2022-07-03T08:54:35;1.73;;;1.30;;
5682;SDS011;2864;49.220;8.654;2022-07-03T08:57:02;2.37;;;1.27;;
5682;SDS011;2864;49.220;8.654;2022-07-03T08:59:37;1.80;;;1.17;;
5682;SDS011;2864;49.220;8.654;2022-07-03T09:02:04;6.13;;;1.60;;
5682;SDS011;2864;49.220;8.654;2022-07-03T09:04:31;1.70;;;1.30;;
5682;SDS011;2864;49.220;8.654;2022-07-03T09:06:59;1.70;;;1.30;;
5682;SDS011;2864;49.220;8.654;2022-07-03T09:09:25;2.37;;;1.50;;
5682;SDS011;2864;49.220;8.654;2022-07-03T09:11:51;2.43;;;1.20;;
5682;SDS011;2864;49.220;8.654;2022-07-03T09:14:17;2.30;;;1.30;;
5682;SDS011;2864;49.220;8.654;2022-07-03T09:16:43;2.40;;;1.30;;
5682;SDS011;2864;49.220;8.654;2022-07-03T09:19:09;1.40;;;1.30;;
5682;SDS011;2864;49.220;8.654;2022-07-03T09:21:40;2.07;;;1.40;;
5682;SDS011;2864;49.220;8.654;2022-07-03T09:24:07;1.40;;;1.30;;
5682;SDS011;2864;49.220;8.654;2022-07-03T09:26:34;2.03;;;1.30;;
5682;SDS011;2864;49.220;8.654;2022-07-03T09:29:00;6.68;;;1.50;;
5682;SDS011;2864;49.220;8.654;2022-07-03T09:31:27;1.80;;;1.20;;
5682;SDS011;2864;49.220;8.654;2022-07-03T09:34:03;4.93;;;1.35;;
5682;SDS011;2864;49.220;8.654;2022-07-03T09:36:42;3.83;;;1.20;;
5682;SDS011;2864;49.220;8.654;2022-07-03T09:39:16;1.35;;;1.20;;
5682;SDS011;2864;49.220;8.654;2022-07-03T09:42:00;3.22;;;1.20;;
5682;SDS011;2864;49.220;8.654;2022-07-03T09:44:34;1.48;;;1.38;;
5682;SDS011;2864;49.220;8.654;2022-07-03T09:53:04;1.13;;;1.02;;
5682;SDS011;2864;49.220;8.654;2022-07-03T09:57:38;2.20;;;1.40;;
5682;SDS011;2864;49.220;8.654;2022-07-03T10:00:26;3.58;;;1.10;;
5682;SDS011;2864;49.220;8.654;2022-07-03T10:02:53;2.70;;;1.20;;
5682;SDS011;2864;49.220;8.654;2022-07-03T10:05:30;2.83;;;1.20;;
5682;SDS011;2864;49.220;8.654;2022-07-03T10:08:01;3.05;;;1.50;;
5682;SDS011;2864;49.220;8.654;2022-07-03T10:10:30;2.13;;;1.20;;
5682;SDS011;2864;49.220;8.654;2022-07-03T10:12:57;2.13;;;1.20;;
5682;SDS011;2864;49.220;8.654;2022-07-03T10:15:24;1.50;;;1.00;;
5682;SDS011;2864;49.220;8.654;2022-07-03T10:17:51;2.95;;;1.05;;
5682;SDS011;2864;49.220;8.654;2022-07-03T10:23:00;5.72;;;1.33;;
5682;SDS011;2864;49.220;8.654;2022-07-03T10:25:26;3.33;;;1.20;;
5682;SDS011;2864;49.220;8.654;2022-07-03T10:27:52;1.40;;;1.05;;
5682;SDS011;2864;49.220;8.654;2022-07-03T10:30:19;1.95;;;1.20;;
5682;SDS011;2864;49.220;8.654;2022-07-03T10:32:47;4.55;;;1.10;;
5682;SDS011;2864;49.220;8.654;2022-07-03T10:35:16;4.20;;;1.30;;
5682;SDS011;2864;49.220;8.654;2022-07-03T10:37:52;6.60;;;1.50;;
5682;SDS011;2864;49.220;8.654;2022-07-03T10:40:34;5.57;;;1.30;;
5682;SDS011;2864;49.220;8.654;2022-07-03T10:43:37;3.55;;;1.55;;
5682;SDS011;2864;49.220;8.654;2022-07-03T10:46:26;3.55;;;1.20;;
5682;SDS011;2864;49.220;8.654;2022-07-03T10:49:05;4.47;;;1.40;;
5682;SDS011;2864;49.220;8.654;2022-07-03T10:54:13;2.50;;;1.38;;
5682;SDS011;2864;49.220;8.654;2022-07-03T10:59:55;2.95;;;1.40;;
5682;SDS011;2864;49.220;8.654;2022-07-03T11:07:28;2.72;;;1.27;;
5682;SDS011;2864;49.220;8.654;2022-07-03T11:15:27;1.42;;;1.17;;
5682;SDS011;2864;49.220;8.654;2022-07-03T11:38:45;3.33;;;1.20;;
5682;SDS011;2864;49.220;8.654;2022-07-03T11:41:14;3.85;;;1.30;;
5682;SDS011;2864;49.220;8.654;2022-07-03T11:43:47;1.42;;;1.00;;
5682;SDS011;2864;49.220;8.654;2022-07-03T11:46:18;1.33;;;1.05;;
5682;SDS011;2864;49.220;8.654;2022-07-03T11:48:44;4.00;;;1.20;;
5682;SDS011;2864;49.220;8.654;2022-07-03T11:51:10;2.97;;;1.20;;
5682;SDS011;2864;49.220;8.654;2022-07-03T11:53:37;2.50;;;1.25;;
5682;SDS011;2864;49.220;8.654;2022-07-03T11:56:10;1.27;;;0.90;;
5682;SDS011;2864;49.220;8.654;2022-07-03T11:58:44;2.13;;;0.90;;
5682;SDS011;2864;49.220;8.654;2022-07-03T12:01:32;1.85;;;1.10;;
5682;SDS011;2864;49.220;8.654;2022-07-03T12:04:02;2.08;;;1.02;;
5682;SDS011;2864;49.220;8.654;2022-07-03T12:09:00;2.58;;;1.15;;
5682;SDS011;2864;49.220;8.654;2022-07-03T12:11:26;1.38;;;1.00;;
5682;SDS011;2864;49.220;8.654;2022-07-03T12:13:52;5.68;;;1.10;;
5682;SDS011;2864;49.220;8.654;2022-07-03T12:16:19;3.03;;;1.00;;
5682;SDS011;2864;49.220;8.654;2022-07-03T12:18:55;1.13;;;1.00;;
5682;SDS011;2864;49.220;8.654;2022-07-03T12:21:21;2.00;;;1.00;;
5682;SDS011;2864;49.220;8.654;2022-07-03T12:23:51;3.58;;;1.20;;
5682;SDS011;2864;49.220;8.654;2022-07-03T12:26:32;2.22;;;1.20;;
5682;SDS011;2864;49.220;8.654;2022-07-03T12:28:59;1.90;;;1.00;;
5682;SDS011;2864;49.220;8.654;2022-07-03T12:31:27;1.10;;;1.00;;
5682;SDS011;2864;49.220;8.654;2022-07-03T12:33:54;3.88;;;1.20;;
5682;SDS011;2864;49.220;8.654;2022-07-03T12:36:20;3.70;;;1.13;;
5682;SDS011;2864;49.220;8.654;2022-07-03T12:38:49;1.48;;;1.00;;
5682;SDS011;2864;49.220;8.654;2022-07-03T12:41:20;2.67;;;0.90;;
5682;SDS011;2864;49.220;8.654;2022-07-03T12:43:47;1.27;;;1.13;;
5682;SDS011;2864;49.220;8.654;2022-07-03T12:46:15;2.92;;;1.73;;
5682;SDS011;2864;49.220;8.654;2022-07-03T12:48:54;1.45;;;1.20;;
5682;SDS011;2864;49.220;8.654;2022-07-03T12:54:14;2.58;;;1.00;;
5682;SDS011;2864;49.220;8.654;2022-07-03T12:56:46;1.50;;;1.00;;
5682;SDS011;2864;49.220;8.654;2022-07-03T13:00:08;1.67;;;1.10;;
5682;SDS011;2864;49.220;8.654;2022-07-03T13:02:37;1.20;;;1.00;;
5682;SDS011;2864;49.220;8.654;2022-07-03T13:05:13;3.10;;;1.30;;
5682;SDS011;2864;49.220;8.654;2022-07-03T13:07:49;2.97;;;1.17;;
5682;SDS011;2864;49.220;8.654;2022-07-03T13:10:17;1.83;;;1.38;;
5682;SDS011;2864;49.220;8.654;2022-07-03T13:12:54;2.75;;;1.10;;
5682;SDS011;2864;49.220;8.654;2022-07-03T13:15:26;1.35;;;0.95;;
5682;SDS011;2864;49.220;8.654;2022-07-03T13:20:22;2.13;;;1.20;;
5682;SDS011;2864;49.220;8.654;2022-07-03T13:22:50;1.45;;;1.10;;
5682;SDS011;2864;49.220;8.654;2022-07-03T13:25:16;2.65;;;1.10;;
5682;SDS011;2864;49.220;8.654;2022-07-03T13:27:43;1.95;;;1.00;;
5682;SDS011;2864;49.220;8.654;2022-07-03T13:30:10;2.58;;;1.20;;
5682;SDS011;2864;49.220;8.654;2022-07-03T13:32:44;1.52;;;1.10;;
5682;SDS011;2864;49.220;8.654;2022-07-03T13:35:10;1.50;;;1.20;;
5682;SDS011;2864;49.220;8.654;2022-07-03T13:37:37;2.67;;;1.10;;
5682;SDS011;2864;49.220;8.654;2022-07-03T13:40:03;4.43;;;1.30;;
5682;SDS011;2864;49.220;8.654;2022-07-03T13:42:30;2.63;;;0.98;;
5682;SDS011;2864;49.220;8.654;2022-07-03T13:44:55;1.63;;;1.00;;
5682;SDS011;2864;49.220;8.654;2022-07-03T13:47:21;2.88;;;0.90;;
5682;SDS011;2864;49.220;8.654;2022-07-03T13:49:47;3.65;;;1.20;;
5682;SDS011;2864;49.220;8.654;2022-07-03T13:52:13;4.07;;;1.45;;
5682;SDS011;2864;49.220;8.654;2022-07-03T13:54:38;1.75;;;1.00;;
5682;SDS011;2864;49.220;8.654;2022-07-03T13:57:04;1.13;;;0.80;;
5682;SDS011;2864;49.220;8.654;2022-07-03T13:59:30;2.47;;;1.20;;
5682;SDS011;2864;49.220;8.654;2022-07-03T14:01:56;2.90;;;0.93;;
5682;SDS011;2864;49.220;8.654;2022-07-03T14:04:22;1.98;;;1.02;;
5682;SDS011;2864;49.220;8.654;2022-07-03T14:06:48;2.53;;;0.90;;
5682;SDS011;2864;49.220;8.654;2022-07-03T14:09:14;1.15;;;1.05;;
5682;SDS011;2864;49.220;8.654;2022-07-03T14:11:40;4.25;;;0.90;;
5682;SDS011;2864;49.220;8.654;2022-07-03T14:14:06;1.75;;;1.17;;
5682;SDS011;2864;49.220;8.654;2022-07-03T14:16:31;2.42;;;1.20;;
5682;SDS011;2864;49.220;8.654;2022-07-03T14:18:57;1.90;;;1.20;;
5682;SDS011;2864;49.220;8.654;2022-07-03T14:21:23;1.40;;;0.98;;
5682;SDS011;2864;49.220;8.654;2022-07-03T14:23:49;1.60;;;1.02;;
5682;SDS011;2864;49.220;8.654;2022-07-03T14:26:14;1.80;;;1.00;;
5682;SDS011;2864;49.220;8.654;2022-07-03T14:28:40;1.65;;;1.00;;
5682;SDS011;2864;49.220;8.654;2022-07-03T14:31:24;1.10;;;1.00;;
5682;SDS011;2864;49.220;8.654;2022-07-03T14:34:08;2.67;;;1.10;;
5682;SDS011;2864;49.220;8.654;2022-07-03T14:36:34;2.85;;;1.17;;
5682;SDS011;2864;49.220;8.654;2022-07-03T14:39:00;2.28;;;0.90;;
5682;SDS011;2864;49.220;8.654;2022-07-03T14:41:25;1.98;;;1.00;;
5682;SDS011;2864;49.220;8.654;2022-07-03T14:43:51;1.63;;;1.00;;
5682;SDS011;2864;49.220;8.654;2022-07-03T14:46:16;1.20;;;1.00;;
5682;SDS011;2864;49.220;8.654;2022-07-03T14:48:42;1.25;;;1.00;;
5682;SDS011;2864;49.220;8.654;2022-07-03T14:51:08;1.67;;;1.00;;
5682;SDS011;2864;49.220;8.654;2022-07-03T14:53:33;2.33;;;1.00;;
5682;SDS011;2864;49.220;8.654;2022-07-03T14:55:59;1.95;;;1.00;;
5682;SDS011;2864;49.220;8.654;2022-07-03T14:58:27;2.35;;;1.02;;
5682;SDS011;2864;49.220;8.654;2022-07-03T15:00:56;3.28;;;1.00;;
5682;SDS011;2864;49.220;8.654;2022-07-03T15:03:29;3.22;;;1.00;;
5682;SDS011;2864;49.220;8.654;2022-07-03T15:05:57;3.58;;;1.30;;
5682;SDS011;2864;49.220;8.654;2022-07-03T15:10:53;2.60;;;1.23;;
5682;SDS011;2864;49.220;8.654;2022-07-03T15:13:19;5.57;;;1.10;;
5682;SDS011;2864;49.220;8.654;2022-07-03T15:15:46;1.48;;;1.15;;
5682;SDS011;2864;49.220;8.654;2022-07-03T15:18:13;3.70;;;1.20;;
5682;SDS011;2864;49.220;8.654;2022-07-03T15:20:43;1.30;;;0.95;;
5682;SDS011;2864;49.220;8.654;2022-07-03T15:23:09;1.83;;;1.08;;
5682;SDS011;2864;49.220;8.654;2022-07-03T15:25:36;1.88;;;1.27;;
5682;SDS011;2864;49.220;8.654;2022-07-03T15:28:03;2.17;;;1.15;;
5682;SDS011;2864;49.220;8.654;2022-07-03T15:30:29;1.25;;;1.10;;
5682;SDS011;2864;49.220;8.654;2022-07-03T15:32:56;1.10;;;1.00;;
5682;SDS011;2864;49.220;8.654;2022-07-03T15:35:22;1.40;;;1.23;;
5682;SDS011;2864;49.220;8.654;2022-07-03T15:37:55;2.70;;;1.00;;
5682;SDS011;2864;49.220;8.654;2022-07-03T15:40:35;1.08;;;1.00;;
5682;SDS011;2864;49.220;8.654;2022-07-03T15:43:14;1.67;;;1.30;;
5682;SDS011;2864;49.220;8.654;2022-07-03T15:48:28;2.35;;;1.40;;
5682;SDS011;2864;49.220;8.654;2022-07-03T15:53:48;1.52;;;1.23;;
5682;SDS011;2864;49.220;8.654;2022-07-03T15:56:16;1.45;;;1.17;;
5682;SDS011;2864;49.220;8.654;2022-07-03T15:58:47;1.60;;;1.20;;
5682;SDS011;2864;49.220;8.654;2022-07-03T16:01:16;3.72;;;1.30;;
5682;SDS011;2864;49.220;8.654;2022-07-03T16:04:03;2.60;;;1.60;;
5682;SDS011;2864;49.220;8.654;2022-07-03T16:06:33;1.63;;;1.15;;
5682;SDS011;2864;49.220;8.654;2022-07-03T16:09:03;3.50;;;1.08;;
5682;SDS011;2864;49.220;8.654;2022-07-03T16:11:29;2.42;;;1.38;;
5682;SDS011;2864;49.220;8.654;2022-07-03T16:13:55;1.77;;;1.20;;
5682;SDS011;2864;49.220;8.654;2022-07-03T16:16:26;3.30;;;1.27;;
5682;SDS011;2864;49.220;8.654;2022-07-03T16:18:53;1.98;;;1.20;;
5682;SDS011;2864;49.220;8.654;2022-07-03T16:21:20;1.30;;;1.20;;
5682;SDS011;2864;49.220;8.654;2022-07-03T16:23:48;2.08;;;0.95;;
5682;SDS011;2864;49.220;8.654;2022-07-03T16:26:14;3.50;;;1.30;;
5682;SDS011;2864;49.220;8.654;2022-07-03T16:28:41;1.70;;;1.40;;
5682;SDS011;2864;49.220;8.654;2022-07-03T16:31:08;3.72;;;1.20;;
5682;SDS011;2864;49.220;8.654;2022-07-03T16:34:33;2.97;;;1.13;;
5682;SDS011;2864;49.220;8.654;2022-07-03T16:37:06;2.65;;;1.10;;
5682;SDS011;2864;49.220;8.654;2022-07-03T16:39:33;1.95;;;1.20;;
5682;SDS011;2864;49.220;8.654;2022-07-03T16:42:04;2.28;;;1.10;;
5682;SDS011;2864;49.220;8.654;2022-07-03T16:44:31;3.53;;;1.25;;
5682;SDS011;2864;49.220;8.654;2022-07-03T16:47:00;2.50;;;1.00;;
5682;SDS011;2864;49.220;8.654;2022-07-03T16:49:30;3.33;;;0.98;;
5682;SDS011;2864;49.220;8.654;2022-07-03T16:52:00;2.03;;;1.00;;
5682;SDS011;2864;49.220;8.654;2022-07-03T16:54:29;3.17;;;1.00;;
5682;SDS011;2864;49.220;8.654;2022-07-03T16:56:56;2.03;;;1.10;;
5682;SDS011;2864;49.220;8.654;2022-07-03T16:59:24;1.00;;;0.90;;
5682;SDS011;2864;49.220;8.654;2022-07-03T17:01:50;2.30;;;1.25;;
5682;SDS011;2864;49.220;8.654;2022-07-03T17:04:18;2.75;;;1.15;;
5682;SDS011;2864;49.220;8.654;2022-07-03T17:06:45;2.63;;;1.20;;
5682;SDS011;2864;49.220;8.654;2022-07-03T17:12:34;3.08;;;1.20;;
5682;SDS011;2864;49.220;8.654;2022-07-03T17:14:59;1.67;;;1.10;;
5682;SDS011;2864;49.220;8.654;2022-07-03T17:17:25;2.50;;;1.00;;
5682;SDS011;2864;49.220;8.654;2022-07-03T17:19:58;2.25;;;1.00;;
5682;SDS011;2864;49.220;8.654;2022-07-03T17:22:28;1.27;;;1.13;;